Greta — J8B5386 — position and weather

sailwx.info

Track history (hours):
 
Tides and Currents Weather Stations Pressure Air Temp Water Temp Dewpoint Dewpoint Depression Visibility Wind Speed Wind Dir Waves Ship Positions

Greta

Last reported at 2018-Jun-21 18:40 UTC. Time now 2018-Jun-21 22:04 UTC.
Position N 53°07' W 005°35'.

Length 100 m; draft 5 m.

Type: Cargo ship. MMSI: 377793000.

Date/timePositionNaut miles runAvg speedWind from/ knotsBaromVisibWave heightAir tempDewpointWater temp
2018-Jun-21 18:40N 53°07' W 005°35'812.2
2018-Jun-21 17:58N 53°15' W 005°39'3811.5
2018-Jun-21 14:39N 53°52' W 005°57'411.9
2018-Jun-21 14:18N 53°56' W 005°59'411.8
2018-Jun-21 13:59N 53°60' W 006°02'2 0.2
2018-Jun-20 22:27N 54°01' W 006°05'510.2
2018-Jun-20 21:55N 53°57' W 005°59'510.6
2018-Jun-20 21:29N 53°53' W 005°57'2710.9
2018-Jun-20 19:00N 53°26' W 005°45'511.0
2018-Jun-20 18:31N 53°21' W 005°42'610.9
2018-Jun-20 17:59N 53°16' W 005°40'711.6
2018-Jun-20 17:24N 53°09' W 005°37'512.1
2018-Jun-20 16:59N 53°04' W 005°34'611.8
2018-Jun-20 16:30N 52°59' W 005°32'712.8
2018-Jun-20 15:59N 52°52' W 005°32'613.3
2018-Jun-20 15:30N 52°46' W 005°32'713.5
2018-Jun-20 15:00N 52°39' W 005°31'5713.5
2018-Jun-20 10:48N 51°43' W 005°24'511.6
2018-Jun-20 10:24N 51°39' W 005°20'411.1
2018-Jun-20 10:00N 51°36' W 005°14'510.8
2018-Jun-20 09:30N 51°33' W 005°07'510.2
2018-Jun-20 09:00N 51°30' W 005°00'5 9.5
2018-Jun-20 08:30N 51°29' W 004°53'6 9.7
2018-Jun-20 07:54N 51°28' W 004°44'4 9.8
2018-Jun-20 07:29N 51°27' W 004°37'4311.5
2018-Jun-20 03:43N 51°20' W 003°29'515.3
2018-Jun-20 03:24N 51°21' W 003°21'813.0
2018-Jun-20 02:45N 51°22' W 003°08'415.4
2018-Jun-20 02:30N 51°24' W 003°03'714.5
2018-Jun-20 02:01N 51°28' W 002°53'713.6
2018-Jun-20 01:30N 51°30' W 002°43'0 0.9
2018-Jun-20 01:00N 51°30' W 002°42'0 0.3
2018-Jun-20 00:29N 51°30' W 002°42'0 0.0
2018-Jun-19 23:59N 51°30' W 002°42'0 0.0
2018-Jun-19 23:26N 51°30' W 002°42'0 0.0
2018-Jun-19 22:56N 51°30' W 002°42'0 0.0
2018-Jun-19 22:29N 51°30' W 002°42'0 0.0
2018-Jun-19 21:59N 51°30' W 002°42'0 0.0
2018-Jun-19 21:29N 51°30' W 002°42'0 0.0
2018-Jun-19 20:59N 51°30' W 002°42'0 0.0
2018-Jun-19 20:23N 51°30' W 002°42'0 0.0
2018-Jun-19 19:59N 51°30' W 002°42'0 0.0
2018-Jun-19 19:29N 51°30' W 002°42'0 0.0
2018-Jun-19 18:56N 51°30' W 002°42'0 0.0
2018-Jun-19 18:29N 51°30' W 002°42'0 0.0
2018-Jun-19 17:59N 51°30' W 002°42'0 0.0
2018-Jun-19 17:29N 51°30' W 002°42'0 0.0
2018-Jun-19 16:59N 51°30' W 002°42'0 0.0
2018-Jun-19 16:23N 51°30' W 002°42'0 0.0
2018-Jun-19 15:59N 51°30' W 002°42'0 0.0
2018-Jun-19 15:26N 51°30' W 002°42'0 0.0
2018-Jun-19 14:53N 51°30' W 002°42'0 0.0
2018-Jun-19 14:29N 51°30' W 002°42'0 0.0
2018-Jun-19 13:59N 51°30' W 002°42'0 0.0
2018-Jun-19 13:29N 51°30' W 002°42'0 0.0
2018-Jun-19 12:59N 51°30' W 002°42'0 0.0
2018-Jun-19 12:29N 51°30' W 002°42'0 0.0
2018-Jun-19 11:59N 51°30' W 002°42'0 0.0
2018-Jun-19 11:26N 51°30' W 002°42'0 0.8
2018-Jun-19 11:00N 51°30' W 002°43'1 1.4
2018-Jun-19 10:31N 51°30' W 002°44'714.3
2018-Jun-19 10:00N 51°28' W 002°55'58 8.1
2018-Jun-19 02:51N 51°26' W 004°28'2 6.8
2018-Jun-19 02:30N 51°27' W 004°32'3 6.4
2018-Jun-19 02:00N 51°27' W 004°37'3 6.1
2018-Jun-19 01:30N 51°28' W 004°41'3 6.4
2018-Jun-19 01:00N 51°28' W 004°47'3 6.3
2018-Jun-19 00:30N 51°29' W 004°52'3 6.4
2018-Jun-19 00:00N 51°30' W 004°57'3 6.5
2018-Jun-18 23:30N 51°31' W 005°02'3 6.7
2018-Jun-18 23:00N 51°33' W 005°06'3 6.8
2018-Jun-18 22:30N 51°34' W 005°10'4 7.0
2018-Jun-18 22:00N 51°37' W 005°15'4 7.6
2018-Jun-18 21:30N 51°39' W 005°20'4 8.1
2018-Jun-18 21:01N 51°42' W 005°24'5 9.3
2018-Jun-18 20:30N 51°46' W 005°26'6111.4
2018-Jun-18 15:10N 52°46' W 005°49'211.5
2018-Jun-18 14:59N 52°48' W 005°50'510.5
2018-Jun-18 14:30N 52°53' W 005°52'4 8.9
2018-Jun-18 14:00N 52°57' W 005°53'4 8.6
2018-Jun-18 13:30N 53°01' W 005°55'4 7.8
2018-Jun-18 13:00N 53°05' W 005°56'4 7.3
2018-Jun-18 12:30N 53°09' W 005°58'3 6.9
2018-Jun-18 12:00N 53°12' W 005°59'4 7.4
2018-Jun-18 11:29N 53°16' W 006°01'5 0.6
2018-Jun-18 02:53N 53°20' W 006°05'1 1.9
2018-Jun-18 02:30N 53°20' W 006°04'3310.1
2018-Jun-17 23:13N 53°54' W 005°60'511.5
2018-Jun-17 22:48N 53°58' W 006°00'310.4
2018-Jun-17 22:30N 54°01' W 006°04'0 0.0
2018-Jun-17 14:16N 54°01' W 006°04'411.5
2018-Jun-17 13:53N 53°57' W 006°01'38 1.6
2018-Jun-16 13:53N 53°19' W 006°05'2 6.2
2018-Jun-16 13:30N 53°18' W 006°01'510.5
2018-Jun-16 13:00N 53°12' W 005°59'611.2
2018-Jun-16 12:30N 53°07' W 005°57'611.7
2018-Jun-16 12:00N 53°01' W 005°55'612.4
2018-Jun-16 11:30N 52°55' W 005°53'713.3
2018-Jun-16 11:00N 52°49' W 005°50'6813.8
2018-Jun-16 06:04N 51°43' W 005°24'211.9
2018-Jun-16 05:55N 51°41' W 005°23'410.8
2018-Jun-16 05:30N 51°38' W 005°18'510.3
2018-Jun-16 05:00N 51°35' W 005°11'5 9.7
2018-Jun-16 04:30N 51°32' W 005°05'5 9.3
2018-Jun-16 04:00N 51°30' W 004°59'5 9.3
2018-Jun-16 03:30N 51°29' W 004°51'5 9.6
2018-Jun-16 03:00N 51°28' W 004°44'510.1
2018-Jun-16 02:30N 51°27' W 004°36'4713.4
2018-Jun-15 23:02N 51°21' W 003°22'116.7
2018-Jun-15 23:00N 51°21' W 003°21'813.2
2018-Jun-15 22:24N 51°23' W 003°09'614.4
2018-Jun-15 22:00N 51°26' W 003°01'714.1
2018-Jun-15 21:30N 51°29' W 002°50'510.2
2018-Jun-15 21:00N 51°30' W 002°43'0 0.6
2018-Jun-15 20:30N 51°30' W 002°42'0 0.0
2018-Jun-15 20:00N 51°30' W 002°42'0 0.0
2018-Jun-15 19:30N 51°30' W 002°42'0 0.0
2018-Jun-15 18:57N 51°30' W 002°42'0 0.0
2018-Jun-15 18:30N 51°30' W 002°42'0 0.0
2018-Jun-15 18:00N 51°30' W 002°42'0 0.0
2018-Jun-15 17:27N 51°30' W 002°42'0 0.0
2018-Jun-15 17:00N 51°30' W 002°42'0 0.0
2018-Jun-15 16:30N 51°30' W 002°42'0 0.0
2018-Jun-15 15:57N 51°30' W 002°42'0 0.0
2018-Jun-15 15:30N 51°30' W 002°42'0 0.0
2018-Jun-15 15:00N 51°30' W 002°42'0 0.0
2018-Jun-15 14:30N 51°30' W 002°42'0 0.0
2018-Jun-15 14:00N 51°30' W 002°42'0 0.0
2018-Jun-15 13:30N 51°30' W 002°42'0 0.0
2018-Jun-15 13:00N 51°30' W 002°42'0 0.0
2018-Jun-15 12:30N 51°30' W 002°42'0 0.0
2018-Jun-15 12:00N 51°30' W 002°42'0 0.0
2018-Jun-15 11:30N 51°30' W 002°42'0 0.0
2018-Jun-15 11:00N 51°30' W 002°42'0 0.0
2018-Jun-15 10:30N 51°30' W 002°42'0 0.0
2018-Jun-15 09:54N 51°30' W 002°42'0 0.0
2018-Jun-15 09:30N 51°30' W 002°42'0 0.0
2018-Jun-15 08:57N 51°30' W 002°42'0 0.0
2018-Jun-15 08:30N 51°30' W 002°42'0 0.0
2018-Jun-15 08:00N 51°30' W 002°42'0 0.0
2018-Jun-15 07:29N 51°30' W 002°42'0 0.0
2018-Jun-15 06:59N 51°30' W 002°42'0 0.0
2018-Jun-15 06:23N 51°30' W 002°42'0 0.3
2018-Jun-15 06:01N 51°30' W 002°42'0 0.6
2018-Jun-15 05:31N 51°30' W 002°43'3 5.7
2018-Jun-15 05:00N 51°30' W 002°47'815.8
2018-Jun-15 04:30N 51°27' W 002°59'1114.8
2018-Jun-15 03:45N 51°21' W 003°15'37 6.3
2018-Jun-14 21:54N 51°24' W 004°14'9 5.2
2018-Jun-14 20:10N 51°25' W 004°28'1 6.2
2018-Jun-14 20:00N 51°25' W 004°30'3 6.6
2018-Jun-14 19:30N 51°25' W 004°35'4 7.2
2018-Jun-14 18:58N 51°25' W 004°41'3 7.6
2018-Jun-14 18:30N 51°25' W 004°47'4 8.1
2018-Jun-14 18:00N 51°25' W 004°53'4 8.5
2018-Jun-14 17:30N 51°25' W 005°00'4 8.5
2018-Jun-14 17:00N 51°25' W 005°07'4 8.8
2018-Jun-14 16:30N 51°25' W 005°14'4 8.6
2018-Jun-14 16:00N 51°25' W 005°21'4 7.1
2018-Jun-14 15:30N 51°29' W 005°22'4 7.6
2018-Jun-14 15:00N 51°33' W 005°23'4 8.2
2018-Jun-14 14:30N 51°37' W 005°24'5 9.6
2018-Jun-14 14:00N 51°42' W 005°25'69 9.2
2018-Jun-14 06:33N 52°48' W 005°51'1 7.9
2018-Jun-14 06:27N 52°49' W 005°51'4 7.5
2018-Jun-14 05:58N 52°53' W 005°52'3 7.2
2018-Jun-14 05:30N 52°56' W 005°53'4 8.5
2018-Jun-14 05:00N 53°00' W 005°55'5 9.2
2018-Jun-14 04:30N 53°05' W 005°57'510.0
2018-Jun-14 04:00N 53°10' W 005°58'510.6
2018-Jun-14 03:30N 53°15' W 005°58'510.0
2018-Jun-14 03:00N 53°20' W 005°58'30 9.6
2018-Jun-13 23:52N 53°50' W 005°59'4 9.6
2018-Jun-13 23:29N 53°54' W 005°60'4 9.4
2018-Jun-13 23:00N 53°58' W 006°00'5 9.2
2018-Jun-13 22:30N 54°02' W 006°05'7 9.9
2018-Jun-13 21:50N 54°05' W 006°14'1 0.2
2018-Jun-13 16:16N 54°06' W 006°16'3 6.3
2018-Jun-13 15:53N 54°04' W 006°12'410.4
2018-Jun-13 15:30N 54°02' W 006°07'4 8.3
2018-Jun-13 15:00N 53°60' W 006°01'611.7
2018-Jun-13 14:30N 53°54' W 005°58'712.0
2018-Jun-13 13:57N 53°48' W 005°55'2411.7
2018-Jun-13 11:53N 53°24' W 005°44'511.8
2018-Jun-13 11:26N 53°19' W 005°41'1412.3
2018-Jun-13 10:17N 53°06' W 005°35'412.7
2018-Jun-13 09:58N 53°02' W 005°33'613.3
2018-Jun-13 09:30N 52°56' W 005°33'714.1
2018-Jun-13 09:00N 52°49' W 005°32'714.3
2018-Jun-13 08:30N 52°41' W 005°31'6014.5
2018-Jun-13 04:22N 51°42' W 005°24'512.4
2018-Jun-13 03:59N 51°38' W 005°20'611.4
2018-Jun-13 03:30N 51°34' W 005°14'510.5
2018-Jun-13 03:00N 51°31' W 005°07'510.3
2018-Jun-13 02:31N 51°30' W 004°59'510.3
2018-Jun-13 02:01N 51°29' W 004°51'610.2
2018-Jun-13 01:28N 51°28' W 004°42'510.7
2018-Jun-13 00:59N 51°27' W 004°34'511.0
2018-Jun-13 00:30N 51°26' W 004°25'4013.4
2018-Jun-12 21:33N 51°21' W 003°22'116.7
2018-Jun-12 21:29N 51°21' W 003°21'1014.0
2018-Jun-12 20:48N 51°24' W 003°07'515.1
2018-Jun-12 20:30N 51°26' W 002°60'816.4
2018-Jun-12 20:00N 51°29' W 002°48'3 6.9
2018-Jun-12 19:30N 51°30' W 002°43'0 0.6
2018-Jun-12 19:00N 51°30' W 002°42'0 0.0
2018-Jun-12 18:30N 51°30' W 002°42'0 0.0
2018-Jun-12 18:00N 51°30' W 002°42'0 0.0
2018-Jun-12 17:30N 51°30' W 002°42'0 0.0
2018-Jun-12 17:00N 51°30' W 002°42'0 0.0
2018-Jun-12 16:30N 51°30' W 002°42'0 0.0
2018-Jun-12 16:00N 51°30' W 002°42'0 0.0
2018-Jun-12 15:30N 51°30' W 002°42'0 0.0
2018-Jun-12 15:00N 51°30' W 002°42'0 0.0
2018-Jun-12 14:27N 51°30' W 002°42'0 0.0
2018-Jun-12 14:00N 51°30' W 002°42'0 0.0
2018-Jun-12 13:30N 51°30' W 002°42'0 0.0
2018-Jun-12 13:00N 51°30' W 002°42'0 0.0
2018-Jun-12 12:30N 51°30' W 002°42'0 0.0
2018-Jun-12 12:00N 51°30' W 002°42'0 0.0
2018-Jun-12 11:30N 51°30' W 002°42'0 0.0
2018-Jun-12 11:00N 51°30' W 002°42'0 0.0
2018-Jun-12 10:30N 51°30' W 002°42'0 0.0
2018-Jun-12 10:00N 51°30' W 002°42'0 0.0
2018-Jun-12 09:30N 51°30' W 002°42'0 0.0
2018-Jun-12 09:00N 51°30' W 002°42'0 0.0
2018-Jun-12 08:30N 51°30' W 002°42'0 0.0
2018-Jun-12 08:00N 51°30' W 002°42'0 0.0
2018-Jun-12 07:27N 51°30' W 002°42'0 0.0
2018-Jun-12 07:00N 51°30' W 002°42'0 0.0
2018-Jun-12 06:30N 51°30' W 002°42'0 0.5
2018-Jun-12 06:00N 51°30' W 002°42'0 0.9
2018-Jun-12 05:30N 51°30' W 002°43'3 5.9
2018-Jun-12 05:01N 51°30' W 002°48'713.5
2018-Jun-12 04:31N 51°27' W 002°58'1313.2
2018-Jun-12 03:33N 51°21' W 003°16'4610.5
2018-Jun-11 23:12N 51°26' W 004°28'212.0
2018-Jun-11 23:00N 51°27' W 004°32'611.4
2018-Jun-11 22:30N 51°28' W 004°41'611.7
2018-Jun-11 22:00N 51°29' W 004°50'510.8
2018-Jun-11 21:30N 51°30' W 004°59'510.7
2018-Jun-11 21:00N 51°32' W 005°06'611.1
2018-Jun-11 20:30N 51°36' W 005°14'510.8
2018-Jun-11 20:00N 51°39' W 005°21'510.0
2018-Jun-11 19:30N 51°43' W 005°24'  
Track history (hours):
 
Tides and Currents Weather Stations Pressure Air Temp Water Temp Dewpoint Dewpoint Depression Visibility Wind Speed Wind Dir Waves Ship Positions

Greta

Last reported at 2018-Jun-21 18:40 UTC. Time now 2018-Jun-21 22:04 UTC.
Position N 53°07' W 005°35'.

Length 100 m; draft 5 m.

Type: Cargo ship. MMSI: 377793000.

Date/timePositionNaut miles runAvg speedWind from/ knotsBaromVisibWave heightAir tempDewpointWater temp
2018-Jun-21 18:40N 53°07' W 005°35'812.2
2018-Jun-21 17:58N 53°15' W 005°39'3811.5
2018-Jun-21 14:39N 53°52' W 005°57'411.9
2018-Jun-21 14:18N 53°56' W 005°59'411.8
2018-Jun-21 13:59N 53°60' W 006°02'2 0.2
2018-Jun-20 22:27N 54°01' W 006°05'510.2
2018-Jun-20 21:55N 53°57' W 005°59'510.6
2018-Jun-20 21:29N 53°53' W 005°57'2710.9
2018-Jun-20 19:00N 53°26' W 005°45'511.0
2018-Jun-20 18:31N 53°21' W 005°42'610.9
2018-Jun-20 17:59N 53°16' W 005°40'711.6
2018-Jun-20 17:24N 53°09' W 005°37'512.1
2018-Jun-20 16:59N 53°04' W 005°34'611.8
2018-Jun-20 16:30N 52°59' W 005°32'712.8
2018-Jun-20 15:59N 52°52' W 005°32'613.3
2018-Jun-20 15:30N 52°46' W 005°32'713.5
2018-Jun-20 15:00N 52°39' W 005°31'5713.5
2018-Jun-20 10:48N 51°43' W 005°24'511.6
2018-Jun-20 10:24N 51°39' W 005°20'411.1
2018-Jun-20 10:00N 51°36' W 005°14'510.8
2018-Jun-20 09:30N 51°33' W 005°07'510.2
2018-Jun-20 09:00N 51°30' W 005°00'5 9.5
2018-Jun-20 08:30N 51°29' W 004°53'6 9.7
2018-Jun-20 07:54N 51°28' W 004°44'4 9.8
2018-Jun-20 07:29N 51°27' W 004°37'4311.5
2018-Jun-20 03:43N 51°20' W 003°29'515.3
2018-Jun-20 03:24N 51°21' W 003°21'813.0
2018-Jun-20 02:45N 51°22' W 003°08'415.4
2018-Jun-20 02:30N 51°24' W 003°03'714.5
2018-Jun-20 02:01N 51°28' W 002°53'713.6
2018-Jun-20 01:30N 51°30' W 002°43'0 0.9
2018-Jun-20 01:00N 51°30' W 002°42'0 0.3
2018-Jun-20 00:29N 51°30' W 002°42'0 0.0
2018-Jun-19 23:59N 51°30' W 002°42'0 0.0
2018-Jun-19 23:26N 51°30' W 002°42'0 0.0
2018-Jun-19 22:56N 51°30' W 002°42'0 0.0
2018-Jun-19 22:29N 51°30' W 002°42'0 0.0
2018-Jun-19 21:59N 51°30' W 002°42'0 0.0
2018-Jun-19 21:29N 51°30' W 002°42'0 0.0
2018-Jun-19 20:59N 51°30' W 002°42'0 0.0
2018-Jun-19 20:23N 51°30' W 002°42'0 0.0
2018-Jun-19 19:59N 51°30' W 002°42'0 0.0
2018-Jun-19 19:29N 51°30' W 002°42'0 0.0
2018-Jun-19 18:56N 51°30' W 002°42'0 0.0
2018-Jun-19 18:29N 51°30' W 002°42'0 0.0
2018-Jun-19 17:59N 51°30' W 002°42'0 0.0
2018-Jun-19 17:29N 51°30' W 002°42'0 0.0
2018-Jun-19 16:59N 51°30' W 002°42'0 0.0
2018-Jun-19 16:23N 51°30' W 002°42'0 0.0
2018-Jun-19 15:59N 51°30' W 002°42'0 0.0
2018-Jun-19 15:26N 51°30' W 002°42'0 0.0
2018-Jun-19 14:53N 51°30' W 002°42'0 0.0
2018-Jun-19 14:29N 51°30' W 002°42'0 0.0
2018-Jun-19 13:59N 51°30' W 002°42'0 0.0
2018-Jun-19 13:29N 51°30' W 002°42'0 0.0
2018-Jun-19 12:59N 51°30' W 002°42'0 0.0
2018-Jun-19 12:29N 51°30' W 002°42'0 0.0
2018-Jun-19 11:59N 51°30' W 002°42'0 0.0
2018-Jun-19 11:26N 51°30' W 002°42'0 0.8
2018-Jun-19 11:00N 51°30' W 002°43'1 1.4
2018-Jun-19 10:31N 51°30' W 002°44'714.3
2018-Jun-19 10:00N 51°28' W 002°55'58 8.1
2018-Jun-19 02:51N 51°26' W 004°28'2 6.8
2018-Jun-19 02:30N 51°27' W 004°32'3 6.4
2018-Jun-19 02:00N 51°27' W 004°37'3 6.1
2018-Jun-19 01:30N 51°28' W 004°41'3 6.4
2018-Jun-19 01:00N 51°28' W 004°47'3 6.3
2018-Jun-19 00:30N 51°29' W 004°52'3 6.4
2018-Jun-19 00:00N 51°30' W 004°57'3 6.5
2018-Jun-18 23:30N 51°31' W 005°02'3 6.7
2018-Jun-18 23:00N 51°33' W 005°06'3 6.8
2018-Jun-18 22:30N 51°34' W 005°10'4 7.0
2018-Jun-18 22:00N 51°37' W 005°15'4 7.6
2018-Jun-18 21:30N 51°39' W 005°20'4 8.1
2018-Jun-18 21:01N 51°42' W 005°24'5 9.3
2018-Jun-18 20:30N 51°46' W 005°26'6111.4
2018-Jun-18 15:10N 52°46' W 005°49'211.5
2018-Jun-18 14:59N 52°48' W 005°50'510.5
2018-Jun-18 14:30N 52°53' W 005°52'4 8.9
2018-Jun-18 14:00N 52°57' W 005°53'4 8.6
2018-Jun-18 13:30N 53°01' W 005°55'4 7.8
2018-Jun-18 13:00N 53°05' W 005°56'4 7.3
2018-Jun-18 12:30N 53°09' W 005°58'3 6.9
2018-Jun-18 12:00N 53°12' W 005°59'4 7.4
2018-Jun-18 11:29N 53°16' W 006°01'5 0.6
2018-Jun-18 02:53N 53°20' W 006°05'1 1.9
2018-Jun-18 02:30N 53°20' W 006°04'3310.1
2018-Jun-17 23:13N 53°54' W 005°60'511.5
2018-Jun-17 22:48N 53°58' W 006°00'310.4
2018-Jun-17 22:30N 54°01' W 006°04'0 0.0
2018-Jun-17 14:16N 54°01' W 006°04'411.5
2018-Jun-17 13:53N 53°57' W 006°01'38 1.6
2018-Jun-16 13:53N 53°19' W 006°05'2 6.2
2018-Jun-16 13:30N 53°18' W 006°01'510.5
2018-Jun-16 13:00N 53°12' W 005°59'611.2
2018-Jun-16 12:30N 53°07' W 005°57'611.7
2018-Jun-16 12:00N 53°01' W 005°55'612.4
2018-Jun-16 11:30N 52°55' W 005°53'713.3
2018-Jun-16 11:00N 52°49' W 005°50'6813.8
2018-Jun-16 06:04N 51°43' W 005°24'211.9
2018-Jun-16 05:55N 51°41' W 005°23'410.8
2018-Jun-16 05:30N 51°38' W 005°18'510.3
2018-Jun-16 05:00N 51°35' W 005°11'5 9.7
2018-Jun-16 04:30N 51°32' W 005°05'5 9.3
2018-Jun-16 04:00N 51°30' W 004°59'5 9.3
2018-Jun-16 03:30N 51°29' W 004°51'5 9.6
2018-Jun-16 03:00N 51°28' W 004°44'510.1
2018-Jun-16 02:30N 51°27' W 004°36'4713.4
2018-Jun-15 23:02N 51°21' W 003°22'116.7
2018-Jun-15 23:00N 51°21' W 003°21'813.2
2018-Jun-15 22:24N 51°23' W 003°09'614.4
2018-Jun-15 22:00N 51°26' W 003°01'714.1
2018-Jun-15 21:30N 51°29' W 002°50'510.2
2018-Jun-15 21:00N 51°30' W 002°43'0 0.6
2018-Jun-15 20:30N 51°30' W 002°42'0 0.0
2018-Jun-15 20:00N 51°30' W 002°42'0 0.0
2018-Jun-15 19:30N 51°30' W 002°42'0 0.0
2018-Jun-15 18:57N 51°30' W 002°42'0 0.0
2018-Jun-15 18:30N 51°30' W 002°42'0 0.0
2018-Jun-15 18:00N 51°30' W 002°42'0 0.0
2018-Jun-15 17:27N 51°30' W 002°42'0 0.0
2018-Jun-15 17:00N 51°30' W 002°42'0 0.0
2018-Jun-15 16:30N 51°30' W 002°42'0 0.0
2018-Jun-15 15:57N 51°30' W 002°42'0 0.0
2018-Jun-15 15:30N 51°30' W 002°42'0 0.0
2018-Jun-15 15:00N 51°30' W 002°42'0 0.0
2018-Jun-15 14:30N 51°30' W 002°42'0 0.0
2018-Jun-15 14:00N 51°30' W 002°42'0 0.0
2018-Jun-15 13:30N 51°30' W 002°42'0 0.0
2018-Jun-15 13:00N 51°30' W 002°42'0 0.0
2018-Jun-15 12:30N 51°30' W 002°42'0 0.0
2018-Jun-15 12:00N 51°30' W 002°42'0 0.0
2018-Jun-15 11:30N 51°30' W 002°42'0 0.0
2018-Jun-15 11:00N 51°30' W 002°42'0 0.0
2018-Jun-15 10:30N 51°30' W 002°42'0 0.0
2018-Jun-15 09:54N 51°30' W 002°42'0 0.0
2018-Jun-15 09:30N 51°30' W 002°42'0 0.0
2018-Jun-15 08:57N 51°30' W 002°42'0 0.0
2018-Jun-15 08:30N 51°30' W 002°42'0 0.0
2018-Jun-15 08:00N 51°30' W 002°42'0 0.0
2018-Jun-15 07:29N 51°30' W 002°42'0 0.0
2018-Jun-15 06:59N 51°30' W 002°42'0 0.0
2018-Jun-15 06:23N 51°30' W 002°42'0 0.3
2018-Jun-15 06:01N 51°30' W 002°42'0 0.6
2018-Jun-15 05:31N 51°30' W 002°43'3 5.7
2018-Jun-15 05:00N 51°30' W 002°47'815.8
2018-Jun-15 04:30N 51°27' W 002°59'1114.8
2018-Jun-15 03:45N 51°21' W 003°15'37 6.3
2018-Jun-14 21:54N 51°24' W 004°14'9 5.2
2018-Jun-14 20:10N 51°25' W 004°28'1 6.2
2018-Jun-14 20:00N 51°25' W 004°30'3 6.6
2018-Jun-14 19:30N 51°25' W 004°35'4 7.2
2018-Jun-14 18:58N 51°25' W 004°41'3 7.6
2018-Jun-14 18:30N 51°25' W 004°47'4 8.1
2018-Jun-14 18:00N 51°25' W 004°53'4 8.5
2018-Jun-14 17:30N 51°25' W 005°00'4 8.5
2018-Jun-14 17:00N 51°25' W 005°07'4 8.8
2018-Jun-14 16:30N 51°25' W 005°14'4 8.6
2018-Jun-14 16:00N 51°25' W 005°21'4 7.1
2018-Jun-14 15:30N 51°29' W 005°22'4 7.6
2018-Jun-14 15:00N 51°33' W 005°23'4 8.2
2018-Jun-14 14:30N 51°37' W 005°24'5 9.6
2018-Jun-14 14:00N 51°42' W 005°25'69 9.2
2018-Jun-14 06:33N 52°48' W 005°51'1 7.9
2018-Jun-14 06:27N 52°49' W 005°51'4 7.5
2018-Jun-14 05:58N 52°53' W 005°52'3 7.2
2018-Jun-14 05:30N 52°56' W 005°53'4 8.5
2018-Jun-14 05:00N 53°00' W 005°55'5 9.2
2018-Jun-14 04:30N 53°05' W 005°57'510.0
2018-Jun-14 04:00N 53°10' W 005°58'510.6
2018-Jun-14 03:30N 53°15' W 005°58'510.0
2018-Jun-14 03:00N 53°20' W 005°58'30 9.6
2018-Jun-13 23:52N 53°50' W 005°59'4 9.6
2018-Jun-13 23:29N 53°54' W 005°60'4 9.4
2018-Jun-13 23:00N 53°58' W 006°00'5 9.2
2018-Jun-13 22:30N 54°02' W 006°05'7 9.9
2018-Jun-13 21:50N 54°05' W 006°14'1 0.2
2018-Jun-13 16:16N 54°06' W 006°16'3 6.3
2018-Jun-13 15:53N 54°04' W 006°12'410.4
2018-Jun-13 15:30N 54°02' W 006°07'4 8.3
2018-Jun-13 15:00N 53°60' W 006°01'611.7
2018-Jun-13 14:30N 53°54' W 005°58'712.0
2018-Jun-13 13:57N 53°48' W 005°55'2411.7
2018-Jun-13 11:53N 53°24' W 005°44'511.8
2018-Jun-13 11:26N 53°19' W 005°41'1412.3
2018-Jun-13 10:17N 53°06' W 005°35'412.7
2018-Jun-13 09:58N 53°02' W 005°33'613.3
2018-Jun-13 09:30N 52°56' W 005°33'714.1
2018-Jun-13 09:00N 52°49' W 005°32'714.3
2018-Jun-13 08:30N 52°41' W 005°31'6014.5
2018-Jun-13 04:22N 51°42' W 005°24'512.4
2018-Jun-13 03:59N 51°38' W 005°20'611.4
2018-Jun-13 03:30N 51°34' W 005°14'510.5
2018-Jun-13 03:00N 51°31' W 005°07'510.3
2018-Jun-13 02:31N 51°30' W 004°59'510.3
2018-Jun-13 02:01N 51°29' W 004°51'610.2
2018-Jun-13 01:28N 51°28' W 004°42'510.7
2018-Jun-13 00:59N 51°27' W 004°34'511.0
2018-Jun-13 00:30N 51°26' W 004°25'4013.4
2018-Jun-12 21:33N 51°21' W 003°22'116.7
2018-Jun-12 21:29N 51°21' W 003°21'1014.0
2018-Jun-12 20:48N 51°24' W 003°07'515.1
2018-Jun-12 20:30N 51°26' W 002°60'816.4
2018-Jun-12 20:00N 51°29' W 002°48'3 6.9
2018-Jun-12 19:30N 51°30' W 002°43'0 0.6
2018-Jun-12 19:00N 51°30' W 002°42'0 0.0
2018-Jun-12 18:30N 51°30' W 002°42'0 0.0
2018-Jun-12 18:00N 51°30' W 002°42'0 0.0
2018-Jun-12 17:30N 51°30' W 002°42'0 0.0
2018-Jun-12 17:00N 51°30' W 002°42'0 0.0
2018-Jun-12 16:30N 51°30' W 002°42'0 0.0
2018-Jun-12 16:00N 51°30' W 002°42'0 0.0
2018-Jun-12 15:30N 51°30' W 002°42'0 0.0
2018-Jun-12 15:00N 51°30' W 002°42'0 0.0
2018-Jun-12 14:27N 51°30' W 002°42'0 0.0
2018-Jun-12 14:00N 51°30' W 002°42'0 0.0
2018-Jun-12 13:30N 51°30' W 002°42'0 0.0
2018-Jun-12 13:00N 51°30' W 002°42'0 0.0
2018-Jun-12 12:30N 51°30' W 002°42'0 0.0
2018-Jun-12 12:00N 51°30' W 002°42'0 0.0
2018-Jun-12 11:30N 51°30' W 002°42'0 0.0
2018-Jun-12 11:00N 51°30' W 002°42'0 0.0
2018-Jun-12 10:30N 51°30' W 002°42'0 0.0
2018-Jun-12 10:00N 51°30' W 002°42'0 0.0
2018-Jun-12 09:30N 51°30' W 002°42'0 0.0
2018-Jun-12 09:00N 51°30' W 002°42'0 0.0
2018-Jun-12 08:30N 51°30' W 002°42'0 0.0
2018-Jun-12 08:00N 51°30' W 002°42'0 0.0
2018-Jun-12 07:27N 51°30' W 002°42'0 0.0
2018-Jun-12 07:00N 51°30' W 002°42'0 0.0
2018-Jun-12 06:30N 51°30' W 002°42'0 0.5
2018-Jun-12 06:00N 51°30' W 002°42'0 0.9
2018-Jun-12 05:30N 51°30' W 002°43'3 5.9
2018-Jun-12 05:01N 51°30' W 002°48'713.5
2018-Jun-12 04:31N 51°27' W 002°58'1313.2
2018-Jun-12 03:33N 51°21' W 003°16'4610.5
2018-Jun-11 23:12N 51°26' W 004°28'212.0
2018-Jun-11 23:00N 51°27' W 004°32'611.4
2018-Jun-11 22:30N 51°28' W 004°41'611.7
2018-Jun-11 22:00N 51°29' W 004°50'510.8
2018-Jun-11 21:30N 51°30' W 004°59'510.7
2018-Jun-11 21:00N 51°32' W 005°06'611.1
2018-Jun-11 20:30N 51°36' W 005°14'510.8
2018-Jun-11 20:00N 51°39' W 005°21'510.0
2018-Jun-11 19:30N 51°43' W 005°24'  

Dump ship's entire track history